Terminal Aerodrome Forecast
Issued by NWS Milwaukee/Sullivan, WI

Home | Current Version | Previous Version | Text Only | Print | Product List | Glossary On
Versions: 1 2 3 4 5 6 7 8 9 10 11 12 13 14 15 16 17 18 19 20 21 22 23 24 25 26
000
FTUS43 KMKX 290520
TAFMKE
TAF
KMKE 290520Z 2906/3012 01012G20KT P6SM FEW030 BKN080
     FM291700 03016G24KT P6SM SCT030 BKN035
     FM300200 04013KT P6SM BKN025
     FM300900 03010KT P6SM BKN015=

USA.gov is the U.S. government's official web portal to all federal, state and local government web resources and services.